首页
METAR-TAF:

METAR-TAF

机场 :

二月四日国际机场

罗安达, 安哥拉

纬度: 08-51S, 经度: 013-14E, 海拔: 74米

当前天气观测

该预报发布于29分钟前的15:00 UTC
风速6节,风向西
温度 23°C
湿度 73%
气压 1014 hPa
能见度10公里或以上
少量云层高于2200英尺

METAR: FNLU 161500Z 28006KT 9999 FEW022 23/18 Q1014 NOSIG

时间: 16:29 (15:29 UTC)

预报

该预报发布于4小时和9分钟前的11:20 UTC
预报有效从16日的 12点(UTC)到 17日的 18点(UTC)
风速3节,风向多变
能見度: 6000
散云层高于1800英尺
阴天层高于2200英尺
短暂存在
从 16日的 14点(UTC)到 16日的 18点(UTC)
风速10节,风向西转西南
能見度: 8000
少量云层高于1700英尺
多云层高于2000英尺
成为
从 16日的 20点(UTC)到 16日的 22点(UTC)
风速6节,风向南转西南
能見度: 9000
少量云层高于1600英尺
散云层高于2200英尺
短暂存在
从 16日的 23点(UTC)到 17日的 03点(UTC)
风速3节,风向多变
能見度: 7000
散云层高于2000英尺
成为
从 17日的 05点(UTC)到 17日的 07点(UTC)
能見度: 3000
散云层高于1800英尺
多云层高于2000英尺
轻雾

TAF: FNLU 161120Z 1612/1718 VRB03KT 6000 SCT018 OVC022 TEMPO 1614/1618 25010KT 8000 FEW017 BKN020 BECMG 1620/1622 20006KT 9000 FEW016 SCT022 TEMPO 1623/1703 VRB03KT 7000 SCT020 BECMG 1705/1707 3000 BR SCT018 BKN020

超过4000个机场的气象观测和天气预报(METAR&TAF报告)。

可查询的气象台以黄色和红色小点在地图上表示。

将鼠标移到小点上方,可查看气象台名称。

然后点击查看天气观测和预报。

如需切换地图:点击带黑十字的绿色按钮放大地图;点击带横线的绿色按钮缩小地图;或者点击绿色箭头查看邻近地区的地图。


METAR-TAF: